createdAt,value
2017-07-21T00:14:01.909Z,94.70
2017-07-21T00:16:30.149Z,93.20
2017-07-21T00:18:57.617Z,92.80
2017-07-21T00:21:25.373Z,93.10
2017-07-21T00:23:52.841Z,93.60
2017-07-21T00:26:20.573Z,93.60
2017-07-21T00:28:48.066Z,93.50
2017-07-21T00:31:15.540Z,93.60
2017-07-21T00:33:43.785Z,93.80
2017-07-21T00:36:11.273Z,93.80
2017-07-21T00:38:39.509Z,94.40
2017-07-21T00:41:07.017Z,94.20
2017-07-21T00:43:35.424Z,93.90
2017-07-21T00:46:03.092Z,93.90
2017-07-21T00:48:30.702Z,93.90
2017-07-21T00:50:58.961Z,94.10
2017-07-21T00:53:26.433Z,93.90
2017-07-21T00:55:54.672Z,93.90
2017-07-21T00:58:22.161Z,94.10
2017-07-21T01:00:49.633Z,94.20
2017-07-21T01:03:17.868Z,94.20
2017-07-21T01:05:45.352Z,94.20
2017-07-21T01:08:12.821Z,94.10
2017-07-21T01:10:41.061Z,94.00
2017-07-21T01:13:08.554Z,94.00
2017-07-21T01:15:36.789Z,94.40
2017-07-21T01:18:04.289Z,94.40
2017-07-21T01:20:32.541Z,94.70
2017-07-21T01:23:00.224Z,94.70
2017-07-21T01:25:28.461Z,94.90
2017-07-21T01:27:55.962Z,94.80
2017-07-21T01:30:24.201Z,94.60
2017-07-21T01:32:51.706Z,94.60
2017-07-21T01:35:19.240Z,94.60
2017-07-21T01:37:47.477Z,94.50
2017-07-21T01:40:14.957Z,94.50
2017-07-21T01:42:42.469Z,94.60
2017-07-21T01:45:10.037Z,95.00
2017-07-21T01:47:37.505Z,95.20
2017-07-21T01:50:04.993Z,95.30
2017-07-21T01:52:32.500Z,95.30
2017-07-21T01:54:59.973Z,95.20
2017-07-21T01:57:27.724Z,95.00
2017-07-21T01:59:55.291Z,94.90
2017-07-21T02:02:23.049Z,94.80
2017-07-21T02:04:50.551Z,94.60
2017-07-21T02:07:18.040Z,94.40
2017-07-21T02:09:45.577Z,94.10
2017-07-21T02:12:13.837Z,94.40
2017-07-21T02:14:41.628Z,94.40
2017-07-21T02:17:09.864Z,94.60
2017-07-21T02:19:37.356Z,94.60
2017-07-21T02:22:05.593Z,94.70
2017-07-21T02:24:33.069Z,94.70
2017-07-21T02:27:00.577Z,94.60
2017-07-21T02:29:28.045Z,94.70
2017-07-21T02:31:55.520Z,94.70
2017-07-21T02:34:23.009Z,94.50
2017-07-21T02:36:51.292Z,94.40
2017-07-21T02:39:19.525Z,94.40
2017-07-21T02:41:47.168Z,94.40
2017-07-21T02:44:15.496Z,94.80
2017-07-21T02:46:42.968Z,94.80
2017-07-21T02:49:10.513Z,94.80
2017-07-21T02:51:38.745Z,94.80
2017-07-21T02:54:06.217Z,94.80
2017-07-21T02:56:33.709Z,94.90
2017-07-21T02:59:01.961Z,94.80
2017-07-21T03:01:29.429Z,94.80
2017-07-21T03:03:56.917Z,94.80
2017-07-21T03:06:24.394Z,94.80
2017-07-21T03:08:51.981Z,94.80
2017-07-21T03:11:19.473Z,94.80
2017-07-21T03:13:47.713Z,94.80
2017-07-21T03:16:15.185Z,94.80
2017-07-21T03:18:42.677Z,94.80
2017-07-21T03:21:10.151Z,94.70
2017-07-21T03:23:37.621Z,94.70
2017-07-21T03:26:05.109Z,94.60
2017-07-21T03:28:32.578Z,94.50
2017-07-21T03:31:00.834Z,94.20
2017-07-21T03:33:28.325Z,94.20
2017-07-21T03:35:57.053Z,94.20
2017-07-21T03:38:24.524Z,94.10
2017-07-21T03:40:52.014Z,94.30
2017-07-21T03:43:19.481Z,94.50
2017-07-21T03:45:47.717Z,94.70
2017-07-21T03:48:15.209Z,94.70
2017-07-21T03:50:43.445Z,94.80
2017-07-21T03:53:11.189Z,94.80
2017-07-21T03:55:38.689Z,94.90
2017-07-21T03:58:06.164Z,95.00
2017-07-21T04:00:34.408Z,95.30
2017-07-21T04:03:02.031Z,95.30
2017-07-21T04:05:29.513Z,95.40
2017-07-21T04:07:56.985Z,95.40
2017-07-21T04:10:24.477Z,95.60
2017-07-21T04:12:52.714Z,95.60
2017-07-21T04:15:20.190Z,95.60
2017-07-21T04:17:47.686Z,95.70
2017-07-21T04:20:15.161Z,95.50
2017-07-21T04:22:42.629Z,95.50
2017-07-21T04:25:10.121Z,95.40
2017-07-21T04:27:37.623Z,95.40
2017-07-21T04:30:05.450Z,95.40
2017-07-21T04:32:33.704Z,95.60
2017-07-21T04:35:01.177Z,95.50
2017-07-21T04:37:28.655Z,95.60
2017-07-21T04:39:56.914Z,95.50
2017-07-21T04:42:25.441Z,94.80
2017-07-21T04:44:52.953Z,94.80
2017-07-21T04:47:21.212Z,93.80
2017-07-21T04:49:48.681Z,93.80
2017-07-21T04:52:16.150Z,94.00
2017-07-21T04:54:44.401Z,94.10
2017-07-21T04:57:13.388Z,93.90
2017-07-21T04:59:40.860Z,93.90
2017-07-21T05:02:08.353Z,94.10
2017-07-21T05:04:35.825Z,94.40
2017-07-21T05:07:03.593Z,94.10
2017-07-21T05:09:31.084Z,93.80
2017-07-21T05:11:58.557Z,94.80
2017-07-21T05:14:26.797Z,92.80
2017-07-21T05:16:54.288Z,92.80
2017-07-21T05:19:21.853Z,90.80
2017-07-21T05:21:50.088Z,91.00
2017-07-21T05:24:17.581Z,90.70
2017-07-21T05:26:45.817Z,91.50
2017-07-21T05:29:13.286Z,91.30
2017-07-21T05:31:40.773Z,91.70
2017-07-21T05:34:09.050Z,90.40
2017-07-21T05:36:37.284Z,91.60
2017-07-21T05:39:04.785Z,91.40
2017-07-21T05:41:33.024Z,90.30
2017-07-21T05:44:00.493Z,90.30
2017-07-21T05:46:27.990Z,90.10
2017-07-21T05:48:55.780Z,91.60
2017-07-21T05:51:23.260Z,90.80
2017-07-21T05:53:50.749Z,90.00
2017-07-21T05:56:18.988Z,88.50
2017-07-21T05:58:46.732Z,89.20
2017-07-21T06:01:14.308Z,88.60
2017-07-21T06:03:41.785Z,89.70
2017-07-21T06:06:09.256Z,90.80
2017-07-21T06:08:36.750Z,90.00
2017-07-21T06:11:04.221Z,90.00
2017-07-21T06:13:31.737Z,90.50
2017-07-21T06:15:59.997Z,90.60
2017-07-21T06:18:27.570Z,90.60
2017-07-21T06:20:55.817Z,90.10
2017-07-21T06:23:23.306Z,90.10
2017-07-21T06:25:51.833Z,90.00
2017-07-21T06:28:19.305Z,90.00
2017-07-21T06:30:47.201Z,89.40
2017-07-21T06:33:22.486Z,90.50
2017-07-21T06:35:49.981Z,89.40
2017-07-21T06:38:17.473Z,90.10
2017-07-21T06:40:45.714Z,90.00
2017-07-21T06:43:13.239Z,90.00
2017-07-21T06:45:40.716Z,90.30
2017-07-21T06:48:08.213Z,89.90
2017-07-21T06:50:36.736Z,89.40
2017-07-21T06:53:04.209Z,89.40
2017-07-21T06:55:31.837Z,87.50
2017-07-21T06:57:59.821Z,84.30
2017-07-21T07:00:27.289Z,85.40
2017-07-21T07:02:54.757Z,85.80
2017-07-21T07:05:22.244Z,82.60
2017-07-21T07:07:49.716Z,81.80
2017-07-21T07:10:17.187Z,80.10
2017-07-21T07:12:44.681Z,80.20
2017-07-21T07:15:12.148Z,81.10
2017-07-21T07:17:39.617Z,80.00
2017-07-21T07:20:07.109Z,78.50
2017-07-21T07:22:34.836Z,79.90
2017-07-21T07:25:02.322Z,77.20
2017-07-21T07:27:30.577Z,76.60
2017-07-21T07:29:58.045Z,76.50
2017-07-21T07:32:26.280Z,74.40
2017-07-21T07:34:53.773Z,74.30
2017-07-21T07:37:22.008Z,73.80
2017-07-21T07:39:49.480Z,73.00
2017-07-21T07:42:16.973Z,72.70
2017-07-21T07:44:45.209Z,73.10
2017-07-21T07:47:12.679Z,73.00
2017-07-21T07:49:40.398Z,71.90
2017-07-21T07:52:07.869Z,68.60
2017-07-21T07:54:35.337Z,69.80
2017-07-21T07:57:02.829Z,68.70
2017-07-21T07:59:31.069Z,66.50
2017-07-21T08:01:58.541Z,65.90
2017-07-21T08:04:26.046Z,64.20
2017-07-21T08:06:53.514Z,61.60
2017-07-21T08:09:20.988Z,63.00
2017-07-21T08:11:48.481Z,61.30
2017-07-21T08:14:15.953Z,63.30
2017-07-21T08:16:44.369Z,59.60
2017-07-21T08:19:11.861Z,59.60
2017-07-21T08:21:39.340Z,59.00
2017-07-21T08:24:07.599Z,59.70
2017-07-21T08:26:35.088Z,59.50
2017-07-21T08:29:03.325Z,59.00
2017-07-21T08:31:30.792Z,59.00
2017-07-21T08:33:58.368Z,57.80
2017-07-21T08:36:26.601Z,56.80
2017-07-21T08:38:54.073Z,56.80
2017-07-21T08:41:21.565Z,57.50
2017-07-21T08:43:49.928Z,55.40
2017-07-21T08:46:17.402Z,55.20
2017-07-21T08:48:44.897Z,55.20
2017-07-21T08:51:12.672Z,54.50
2017-07-21T08:53:40.140Z,56.80
2017-07-21T08:56:07.632Z,57.20
2017-07-21T08:58:35.865Z,57.50
2017-07-21T09:01:03.337Z,57.70
2017-07-21T09:03:30.830Z,58.20
2017-07-21T09:05:58.296Z,56.10
2017-07-21T09:08:26.060Z,56.60
2017-07-21T09:10:54.234Z,55.40
2017-07-21T09:13:21.710Z,53.40
2017-07-21T09:15:49.182Z,51.60
2017-07-21T09:18:16.675Z,52.80
2017-07-21T09:20:44.920Z,54.60
2017-07-21T09:23:12.420Z,54.10
2017-07-21T09:25:39.969Z,51.00
2017-07-21T09:28:07.440Z,43.30
2017-07-21T09:30:35.237Z,45.10
2017-07-21T09:33:02.749Z,49.60
2017-07-21T09:35:31.004Z,45.90
2017-07-21T09:37:58.737Z,45.80
2017-07-21T09:40:26.225Z,46.70
2017-07-21T09:42:53.693Z,47.60
2017-07-21T09:45:22.603Z,48.10
2017-07-21T09:47:50.097Z,49.30
2017-07-21T09:50:17.565Z,49.00
2017-07-21T09:52:45.417Z,48.50
2017-07-21T09:55:13.483Z,45.60
2017-07-21T09:57:41.674Z,46.10
2017-07-21T10:00:09.155Z,45.10
2017-07-21T10:02:36.644Z,43.70
2017-07-21T10:05:04.113Z,42.50
2017-07-21T10:07:31.582Z,44.90
2017-07-21T10:09:59.073Z,43.50
2017-07-21T10:12:26.542Z,43.70
2017-07-21T10:14:54.017Z,45.00
2017-07-21T10:17:22.333Z,43.60
2017-07-21T10:19:49.805Z,43.60
2017-07-21T10:22:17.321Z,45.20
2017-07-21T10:24:45.296Z,44.70
2017-07-21T10:27:12.765Z,43.80
2017-07-21T10:29:40.237Z,46.30
2017-07-21T10:32:07.748Z,45.20
2017-07-21T10:34:35.990Z,41.30
2017-07-21T10:37:03.461Z,41.30
2017-07-21T10:39:30.953Z,39.90
2017-07-21T10:41:58.437Z,40.00
2017-07-21T10:44:25.909Z,45.50
2017-07-21T10:46:53.428Z,40.90
2017-07-21T10:49:20.925Z,41.90
2017-07-21T10:51:48.425Z,42.00
2017-07-21T10:54:17.004Z,44.20
2017-07-21T10:56:45.241Z,44.40
2017-07-21T10:59:12.712Z,44.40
2017-07-21T11:01:40.445Z,40.60
2017-07-21T11:04:07.917Z,46.20
2017-07-21T11:06:35.389Z,45.20
2017-07-21T11:09:02.877Z,42.70
2017-07-21T11:11:30.348Z,39.10
2017-07-21T11:13:57.885Z,39.90
2017-07-21T11:16:26.150Z,44.80
2017-07-21T11:18:53.621Z,44.70
2017-07-21T11:21:21.863Z,41.50
2017-07-21T11:23:49.377Z,41.30
2017-07-21T11:26:16.885Z,42.00
2017-07-21T11:28:44.356Z,43.40
2017-07-21T11:31:11.849Z,42.40
2017-07-21T11:33:39.332Z,43.20
2017-07-21T11:36:06.805Z,41.70
2017-07-21T11:38:34.305Z,41.30
2017-07-21T11:41:02.547Z,41.00
2017-07-21T11:43:30.017Z,41.00
2017-07-21T11:45:57.588Z,41.20
2017-07-21T11:48:25.825Z,42.40
2017-07-21T11:50:53.297Z,42.30
2017-07-21T11:53:20.810Z,40.60
2017-07-21T11:55:48.303Z,43.50
2017-07-21T11:58:15.773Z,41.90
2017-07-21T12:00:43.260Z,40.80
2017-07-21T12:03:10.732Z,41.20
2017-07-21T12:05:38.513Z,40.60
2017-07-21T12:08:06.009Z,42.00
2017-07-21T12:10:33.477Z,38.90
2017-07-21T12:13:01.722Z,41.20
2017-07-21T12:15:29.321Z,41.50
2017-07-21T12:17:57.561Z,43.50
2017-07-21T12:20:25.072Z,43.50
2017-07-21T12:22:52.564Z,42.20
2017-07-21T12:25:20.273Z,42.60
2017-07-21T12:27:48.708Z,40.80
2017-07-21T12:30:16.302Z,40.70
2017-07-21T12:32:44.545Z,43.20
2017-07-21T12:35:12.014Z,42.50
2017-07-21T12:37:39.505Z,44.50
2017-07-21T12:40:06.997Z,41.80
2017-07-21T12:42:34.468Z,42.90
2017-07-21T12:45:01.960Z,41.50
2017-07-21T12:47:29.428Z,42.50
2017-07-21T12:49:57.684Z,44.40
2017-07-21T12:52:25.189Z,44.30
2017-07-21T12:54:52.877Z,44.30
2017-07-21T12:57:20.359Z,46.60
2017-07-21T12:59:47.949Z,43.10
2017-07-21T13:02:15.435Z,44.40
2017-07-21T13:04:42.908Z,45.60
2017-07-21T13:07:10.489Z,44.90
2017-07-21T13:09:38.007Z,47.50
2017-07-21T13:12:05.493Z,46.60
2017-07-21T13:14:34.035Z,46.00
2017-07-21T13:17:01.570Z,47.00
2017-07-21T13:19:30.037Z,47.30
2017-07-21T13:21:57.531Z,47.30
2017-07-21T13:24:25.002Z,46.90
2017-07-21T13:26:52.469Z,47.70
2017-07-21T13:29:19.956Z,49.00
2017-07-21T13:31:47.428Z,48.00
2017-07-21T13:34:14.896Z,46.70
2017-07-21T13:36:43.162Z,48.60
2017-07-21T13:39:11.403Z,47.50
2017-07-21T13:41:39.467Z,47.50
2017-07-21T13:44:07.776Z,48.80
2017-07-21T13:46:35.253Z,48.80
2017-07-21T13:49:03.490Z,46.60
2017-07-21T13:51:30.980Z,46.60
2017-07-21T13:53:59.501Z,45.50
2017-07-21T13:56:27.265Z,45.50
2017-07-21T13:58:55.105Z,47.50
2017-07-21T14:01:22.648Z,48.00
2017-07-21T14:03:50.885Z,47.90
2017-07-21T14:06:18.628Z,47.90
2017-07-21T14:08:46.108Z,47.40
2017-07-21T14:11:13.580Z,48.60
2017-07-21T14:13:41.079Z,49.70
2017-07-21T14:16:08.551Z,48.50
2017-07-21T14:18:36.030Z,45.70
2017-07-21T14:21:03.525Z,46.90
2017-07-21T14:23:31.761Z,47.70
2017-07-21T14:25:59.453Z,47.20
2017-07-21T14:28:27.332Z,49.20
2017-07-21T14:30:54.889Z,48.10
2017-07-21T14:33:23.138Z,48.60
2017-07-21T14:35:50.629Z,48.50
2017-07-21T14:38:18.881Z,50.60
2017-07-21T14:40:46.354Z,50.50
2017-07-21T14:43:14.613Z,48.10
2017-07-21T14:45:42.089Z,48.00
2017-07-21T14:48:10.325Z,46.90
2017-07-21T14:50:37.826Z,46.90
2017-07-21T14:53:06.068Z,46.40
2017-07-21T14:55:33.538Z,46.40
2017-07-21T14:58:01.029Z,46.90
2017-07-21T15:00:28.504Z,46.90
2017-07-21T15:02:56.016Z,47.80
2017-07-21T15:05:24.273Z,47.90
2017-07-21T15:07:51.830Z,47.40
2017-07-21T15:10:19.301Z,51.10
2017-07-21T15:12:46.793Z,49.20
2017-07-21T15:15:14.261Z,49.90
2017-07-21T15:17:41.772Z,49.90
2017-07-21T15:20:09.265Z,49.70
2017-07-21T15:22:36.734Z,49.70
2017-07-21T15:25:04.225Z,49.30
2017-07-21T15:27:31.856Z,49.40
2017-07-21T15:29:59.345Z,50.10
2017-07-21T15:32:26.825Z,48.30
2017-07-21T15:34:55.105Z,46.20
2017-07-21T15:37:23.348Z,47.20
2017-07-21T15:39:50.837Z,46.50
2017-07-21T15:42:19.098Z,46.70
2017-07-21T15:44:46.574Z,46.50
2017-07-21T15:47:14.809Z,45.70
2017-07-21T15:49:42.306Z,45.70
2017-07-21T15:52:10.545Z,46.60
2017-07-21T15:54:38.021Z,46.60
2017-07-21T15:57:05.541Z,46.60
2017-07-21T15:59:33.016Z,47.10
2017-07-21T16:02:00.495Z,46.00
2017-07-21T16:04:28.069Z,46.40
2017-07-21T16:06:56.687Z,45.10
2017-07-21T16:09:24.656Z,45.10
2017-07-21T16:11:53.806Z,46.30
2017-07-21T16:14:22.027Z,47.30
2017-07-21T16:16:49.529Z,47.30
2017-07-21T16:19:17.144Z,46.70
2017-07-21T16:21:44.622Z,46.90
2017-07-21T16:24:12.260Z,46.80
2017-07-21T16:26:39.749Z,47.90
2017-07-21T16:29:07.231Z,46.70
2017-07-21T16:31:35.761Z,45.80
2017-07-21T16:34:03.254Z,46.20
2017-07-21T16:36:30.828Z,47.00
2017-07-21T16:38:59.080Z,47.90
2017-07-21T16:41:26.712Z,47.90
2017-07-21T16:43:54.229Z,48.00
2017-07-21T16:46:22.469Z,49.70
2017-07-21T16:48:49.962Z,49.70
2017-07-21T16:51:18.205Z,47.80
2017-07-21T16:53:45.678Z,47.80
2017-07-21T16:56:13.169Z,48.10
2017-07-21T16:58:40.657Z,47.80
2017-07-21T17:01:08.415Z,48.30
2017-07-21T17:03:35.914Z,48.70
2017-07-21T17:06:03.386Z,48.60
2017-07-21T17:08:31.629Z,48.20
2017-07-21T17:10:59.194Z,48.10
2017-07-21T17:13:26.681Z,48.70
2017-07-21T17:15:54.918Z,48.40
2017-07-21T17:18:22.409Z,48.40
2017-07-21T17:20:50.645Z,50.40
2017-07-21T17:23:18.113Z,50.40
2017-07-21T17:25:45.610Z,51.50
2017-07-21T17:28:13.083Z,51.70
2017-07-21T17:30:40.565Z,52.20
2017-07-21T17:33:08.057Z,52.30
2017-07-21T17:35:35.528Z,53.20
2017-07-21T17:38:03.761Z,53.60
2017-07-21T17:40:31.243Z,53.60
2017-07-21T17:42:58.713Z,53.90
2017-07-21T17:45:26.949Z,53.70
2017-07-21T17:47:54.441Z,53.70
2017-07-21T17:50:22.684Z,54.30
2017-07-21T17:52:50.153Z,54.30
2017-07-21T17:55:17.641Z,54.20
2017-07-21T17:57:46.156Z,56.90
2017-07-21T18:00:13.625Z,56.90
2017-07-21T18:02:41.546Z,57.50
2017-07-21T18:05:09.813Z,58.40
2017-07-21T18:07:38.049Z,59.40
2017-07-21T18:10:05.545Z,59.40
2017-07-21T18:12:33.781Z,60.80
2017-07-21T18:15:01.250Z,60.70
2017-07-21T18:17:28.737Z,61.60
2017-07-21T18:19:56.973Z,61.70
2017-07-21T18:22:24.709Z,62.40
2017-07-21T18:24:52.232Z,61.90
2017-07-21T18:27:20.469Z,62.20
2017-07-21T18:29:47.936Z,62.20
2017-07-21T18:32:15.429Z,62.00
2017-07-21T18:34:42.906Z,62.40
2017-07-21T18:37:10.433Z,61.80
2017-07-21T18:39:38.689Z,62.00
2017-07-21T18:42:06.167Z,61.90
2017-07-21T18:44:34.409Z,62.70
2017-07-21T18:47:02.150Z,62.70
2017-07-21T18:49:30.228Z,62.70
2017-07-21T18:51:57.702Z,63.20
2017-07-21T18:54:25.436Z,62.90
2017-07-21T18:56:52.936Z,63.50
2017-07-21T18:59:20.405Z,63.50
2017-07-21T19:01:48.665Z,64.60
2017-07-21T19:04:16.137Z,64.60
2017-07-21T19:06:44.372Z,66.30
2017-07-21T19:09:11.866Z,66.20
2017-07-21T19:11:40.114Z,65.00
2017-07-21T19:14:07.582Z,65.50
2017-07-21T19:16:35.144Z,65.60
2017-07-21T19:19:02.617Z,63.20
2017-07-21T19:21:30.856Z,67.20
2017-07-21T19:23:58.364Z,67.30
2017-07-21T19:26:25.873Z,68.60
2017-07-21T19:28:53.342Z,69.70
2017-07-21T19:31:20.833Z,69.80
2017-07-21T19:33:49.073Z,69.60
2017-07-21T19:36:16.545Z,70.20
2017-07-21T19:38:44.037Z,70.30
2017-07-21T19:41:11.506Z,70.40
2017-07-21T19:43:39.160Z,70.80
2017-07-21T19:46:06.653Z,71.30
2017-07-21T19:48:34.120Z,71.60
2017-07-21T19:51:01.589Z,71.50
2017-07-21T19:53:29.082Z,72.30
2017-07-21T19:55:56.560Z,73.10
2017-07-21T19:58:24.329Z,73.40
2017-07-21T20:00:51.821Z,73.20
2017-07-21T20:03:19.297Z,74.10
2017-07-21T20:05:47.532Z,74.30
2017-07-21T20:08:15.034Z,74.20
2017-07-21T20:10:43.568Z,72.60
2017-07-21T20:13:11.036Z,72.60
2017-07-21T20:15:38.524Z,73.00
2017-07-21T20:18:06.761Z,68.70
2017-07-21T20:20:34.237Z,68.70
2017-07-21T20:23:01.732Z,68.50
2017-07-21T20:25:29.202Z,67.80
2017-07-21T20:27:56.672Z,66.90
2017-07-21T20:30:24.161Z,64.90
2017-07-21T20:32:51.645Z,64.20
2017-07-21T20:35:19.880Z,65.70
2017-07-21T20:37:47.881Z,65.60
2017-07-21T20:40:16.125Z,66.30
2017-07-21T20:42:43.593Z,66.20
2017-07-21T20:45:11.080Z,66.50
2017-07-21T20:47:39.317Z,67.20
2017-07-21T20:50:06.784Z,67.30
2017-07-21T20:52:35.923Z,67.60
2017-07-21T20:55:03.408Z,67.90
2017-07-21T20:57:30.885Z,68.80
2017-07-21T20:59:58.377Z,69.30
2017-07-21T21:02:26.613Z,70.10
2017-07-21T21:04:54.142Z,70.10
2017-07-21T21:07:21.633Z,70.90
2017-07-21T21:09:49.157Z,72.50
2017-07-21T21:12:16.629Z,76.00
2017-07-21T21:14:44.125Z,77.60
2017-07-21T21:17:11.842Z,78.30
2017-07-21T21:19:39.321Z,79.80
2017-07-21T21:22:06.804Z,79.60
2017-07-21T21:24:35.337Z,79.80
2017-07-21T21:27:02.809Z,80.20
2017-07-21T21:29:30.313Z,80.90
2017-07-21T21:31:58.561Z,81.30
2017-07-21T21:34:26.030Z,81.30
2017-07-21T21:36:53.516Z,83.80
2017-07-21T21:39:21.000Z,83.90
2017-07-21T21:41:48.502Z,85.90
2017-07-21T21:44:16.769Z,88.00
2017-07-21T21:46:44.241Z,88.00
2017-07-21T21:49:12.478Z,92.30
2017-07-21T21:51:39.972Z,92.30
2017-07-21T21:54:08.209Z,93.80
2017-07-21T21:56:35.680Z,93.80
2017-07-21T21:59:03.173Z,95.20
2017-07-21T22:01:31.889Z,95.40
2017-07-21T22:03:59.358Z,95.40
2017-07-21T22:06:27.024Z,96.00
2017-07-21T22:08:54.496Z,95.90
2017-07-21T22:11:21.966Z,96.30
2017-07-21T22:13:49.452Z,96.30
2017-07-21T22:16:17.722Z,96.30
2017-07-21T22:18:45.202Z,96.30
2017-07-21T22:21:12.714Z,96.20
2017-07-21T22:23:40.825Z,96.50
2017-07-21T22:26:08.296Z,96.50
2017-07-21T22:28:36.068Z,96.20
2017-07-21T22:31:03.541Z,95.50
2017-07-21T22:33:31.286Z,95.60
2017-07-21T22:35:58.789Z,95.70
2017-07-21T22:38:26.261Z,95.70
2017-07-21T22:40:54.496Z,96.60
2017-07-21T22:43:22.031Z,96.60
2017-07-21T22:45:49.501Z,96.80
2017-07-21T22:48:16.977Z,96.90
2017-07-21T22:50:44.469Z,97.10
2017-07-21T22:53:13.036Z,97.40
2017-07-21T22:55:40.505Z,97.40
2017-07-21T22:58:08.782Z,97.00
2017-07-21T23:00:37.016Z,96.90
2017-07-21T23:03:04.537Z,96.90
2017-07-21T23:05:32.321Z,96.90
2017-07-21T23:07:59.797Z,97.00
2017-07-21T23:10:27.265Z,97.40
2017-07-21T23:12:54.753Z,97.60
2017-07-21T23:15:22.996Z,97.20
2017-07-21T23:17:50.465Z,97.20
2017-07-21T23:20:17.961Z,97.10
2017-07-21T23:22:45.430Z,97.20
2017-07-21T23:25:12.901Z,97.40
2017-07-21T23:27:40.392Z,97.40
2017-07-21T23:30:07.860Z,97.40
2017-07-21T23:32:36.101Z,97.50
2017-07-21T23:35:03.594Z,97.70
2017-07-21T23:37:31.832Z,97.80
2017-07-21T23:39:59.301Z,97.60
2017-07-21T23:42:26.793Z,97.40
2017-07-21T23:44:54.276Z,97.40
2017-07-21T23:47:21.745Z,97.10
2017-07-21T23:49:49.236Z,97.30
2017-07-21T23:52:16.709Z,97.60
2017-07-21T23:54:44.944Z,97.90
2017-07-21T23:57:12.433Z,97.90
2017-07-21T23:59:39.901Z,97.90
